sensor_id;sensor_type;location;lat;lon;timestamp;pressure;altitude;pressure_sealevel;temperature;humidity
23953;BME280;12163;49.316;6.092;2022-09-13T00:00:58;98969.19;;;16.77;66.33
23953;BME280;12163;49.316;6.092;2022-09-13T00:03:25;98970.66;;;16.75;67.32
23953;BME280;12163;49.316;6.092;2022-09-13T00:05:52;98971.00;;;16.73;67.30
23953;BME280;12163;49.316;6.092;2022-09-13T00:08:19;98970.56;;;16.71;66.99
23953;BME280;12163;49.316;6.092;2022-09-13T00:10:46;98977.47;;;16.69;66.62
23953;BME280;12163;49.316;6.092;2022-09-13T00:13:14;98978.97;;;16.66;67.61
23953;BME280;12163;49.316;6.092;2022-09-13T00:15:48;98980.75;;;16.62;67.15
23953;BME280;12163;49.316;6.092;2022-09-13T00:18:16;98967.47;;;16.61;67.92
23953;BME280;12163;49.316;6.092;2022-09-13T00:20:44;98963.16;;;16.60;67.41
23953;BME280;12163;49.316;6.092;2022-09-13T00:23:11;98967.03;;;16.59;67.10
23953;BME280;12163;49.316;6.092;2022-09-13T00:25:38;98975.53;;;16.57;67.51
23953;BME280;12163;49.316;6.092;2022-09-13T00:28:06;98978.59;;;16.56;67.46
23953;BME280;12163;49.316;6.092;2022-09-13T00:30:33;98982.31;;;16.51;67.88
23953;BME280;12163;49.316;6.092;2022-09-13T00:32:59;98981.50;;;16.51;68.24
23953;BME280;12163;49.316;6.092;2022-09-13T00:35:30;98985.03;;;16.51;67.89
23953;BME280;12163;49.316;6.092;2022-09-13T00:37:58;98982.31;;;16.51;68.08
23953;BME280;12163;49.316;6.092;2022-09-13T00:40:25;98985.50;;;16.53;68.00
23953;BME280;12163;49.316;6.092;2022-09-13T00:42:52;98975.53;;;16.57;68.47
23953;BME280;12163;49.316;6.092;2022-09-13T00:45:18;98972.47;;;16.59;67.97
23953;BME280;12163;49.316;6.092;2022-09-13T00:47:55;98970.97;;;16.61;68.18
23953;BME280;12163;49.316;6.092;2022-09-13T00:50:33;98975.75;;;16.64;68.17
23953;BME280;12163;49.316;6.092;2022-09-13T00:53:10;98968.84;;;16.67;68.49
23953;BME280;12163;49.316;6.092;2022-09-13T00:58:17;98958.75;;;16.79;68.01
23953;BME280;12163;49.316;6.092;2022-09-13T01:00:46;98954.66;;;16.85;67.55
23953;BME280;12163;49.316;6.092;2022-09-13T01:03:15;98956.38;;;16.90;67.45
23953;BME280;12163;49.316;6.092;2022-09-13T01:05:50;98949.47;;;16.92;68.08
23953;BME280;12163;49.316;6.092;2022-09-13T01:08:18;98937.88;;;16.95;68.17
23953;BME280;12163;49.316;6.092;2022-09-13T01:10:52;98940.38;;;17.00;67.63
23953;BME280;12163;49.316;6.092;2022-09-13T01:13:32;98951.94;;;16.97;67.39
23953;BME280;12163;49.316;6.092;2022-09-13T01:15:59;98962.72;;;16.93;68.42
23953;BME280;12163;49.316;6.092;2022-09-13T01:18:26;98952.50;;;16.91;68.24
23953;BME280;12163;49.316;6.092;2022-09-13T01:44:08;98951.94;;;16.73;68.74
23953;BME280;12163;49.316;6.092;2022-09-13T01:46:46;98957.38;;;16.73;68.39
23953;BME280;12163;49.316;6.092;2022-09-13T01:49:25;98958.06;;;16.70;69.15
23953;BME280;12163;49.316;6.092;2022-09-13T01:51:59;98962.72;;;16.70;69.47
23953;BME280;12163;49.316;6.092;2022-09-13T01:54:37;98967.72;;;16.68;68.90
23953;BME280;12163;49.316;6.092;2022-09-13T01:57:27;98965.66;;;16.65;68.64
23953;BME280;12163;49.316;6.092;2022-09-13T02:00:05;98952.84;;;16.65;69.55
23953;BME280;12163;49.316;6.092;2022-09-13T02:05:17;98936.50;;;16.65;69.05
23953;BME280;12163;49.316;6.092;2022-09-13T02:07:56;98941.47;;;16.63;69.29
23953;BME280;12163;49.316;6.092;2022-09-13T02:10:28;98929.44;;;16.64;69.41
23953;BME280;12163;49.316;6.092;2022-09-13T02:12:59;98926.38;;;16.66;69.01
23953;BME280;12163;49.316;6.092;2022-09-13T02:15:33;98926.06;;;16.67;69.39
23953;BME280;12163;49.316;6.092;2022-09-13T02:18:21;98927.66;;;16.68;69.83
23953;BME280;12163;49.316;6.092;2022-09-13T02:20:51;98928.56;;;16.72;69.54
23953;BME280;12163;49.316;6.092;2022-09-13T02:23:24;98916.06;;;16.71;69.05
23953;BME280;12163;49.316;6.092;2022-09-13T02:25:54;98912.09;;;16.69;69.39
23953;BME280;12163;49.316;6.092;2022-09-13T02:28:27;98907.44;;;16.69;69.19
23953;BME280;12163;49.316;6.092;2022-09-13T02:30:58;98902.09;;;16.73;69.20
23953;BME280;12163;49.316;6.092;2022-09-13T02:33:28;98903.34;;;16.75;69.30
23953;BME280;12163;49.316;6.092;2022-09-13T02:36:09;98900.63;;;16.75;69.00
23953;BME280;12163;49.316;6.092;2022-09-13T02:38:41;98897.00;;;16.71;69.33
23953;BME280;12163;49.316;6.092;2022-09-13T02:41:13;98912.66;;;16.74;68.90
23953;BME280;12163;49.316;6.092;2022-09-13T02:43:47;98918.44;;;16.73;69.45
23953;BME280;12163;49.316;6.092;2022-09-13T02:47:10;98919.03;;;16.66;69.72
23953;BME280;12163;49.316;6.092;2022-09-13T02:49:37;98915.16;;;16.67;69.19
23953;BME280;12163;49.316;6.092;2022-09-13T02:57:49;98892.91;;;16.65;69.49
23953;BME280;12163;49.316;6.092;2022-09-13T03:00:17;98891.41;;;16.68;69.18
23953;BME280;12163;49.316;6.092;2022-09-13T03:02:45;98892.69;;;16.70;69.47
23953;BME280;12163;49.316;6.092;2022-09-13T03:05:14;98890.41;;;16.72;70.01
23953;BME280;12163;49.316;6.092;2022-09-13T03:07:40;98873.38;;;16.75;69.43
23953;BME280;12163;49.316;6.092;2022-09-13T03:10:10;98879.28;;;16.77;69.63
23953;BME280;12163;49.316;6.092;2022-09-13T03:24:56;98900.16;;;16.61;69.99
23953;BME280;12163;49.316;6.092;2022-09-13T03:30:19;98903.34;;;16.63;70.23
23953;BME280;12163;49.316;6.092;2022-09-13T03:32:56;98915.38;;;16.62;70.73
23953;BME280;12163;49.316;6.092;2022-09-13T03:35:29;98915.03;;;16.64;70.44
23953;BME280;12163;49.316;6.092;2022-09-13T03:40:48;98914.47;;;16.70;70.04
23953;BME280;12163;49.316;6.092;2022-09-13T03:46:08;98906.84;;;16.76;70.49
23953;BME280;12163;49.316;6.092;2022-09-13T03:48:38;98905.06;;;16.80;70.64
23953;BME280;12163;49.316;6.092;2022-09-13T03:51:07;98897.66;;;16.80;70.36
23953;BME280;12163;49.316;6.092;2022-09-13T03:53:39;98904.69;;;16.81;70.60
23953;BME280;12163;49.316;6.092;2022-09-13T03:56:15;98916.50;;;16.85;70.15
23953;BME280;12163;49.316;6.092;2022-09-13T03:58:42;98912.00;;;16.89;69.77
23953;BME280;12163;49.316;6.092;2022-09-13T04:01:09;98909.72;;;16.91;69.88
23953;BME280;12163;49.316;6.092;2022-09-13T04:03:38;98905.03;;;16.92;69.90
23953;BME280;12163;49.316;6.092;2022-09-13T04:06:05;98911.75;;;16.94;70.41
23953;BME280;12163;49.316;6.092;2022-09-13T04:08:32;98910.63;;;16.95;70.17
23953;BME280;12163;49.316;6.092;2022-09-13T04:10:59;98905.63;;;16.97;70.13
23953;BME280;12163;49.316;6.092;2022-09-13T04:13:26;98911.50;;;16.99;69.42
23953;BME280;12163;49.316;6.092;2022-09-13T04:15:53;98902.19;;;17.00;70.03
23953;BME280;12163;49.316;6.092;2022-09-13T04:18:20;98883.56;;;17.02;70.29
23953;BME280;12163;49.316;6.092;2022-09-13T04:20:57;98871.97;;;17.05;69.58
23953;BME280;12163;49.316;6.092;2022-09-13T04:23:26;98861.19;;;17.08;70.07
23953;BME280;12163;49.316;6.092;2022-09-13T04:25:53;98859.03;;;17.14;69.53
23953;BME280;12163;49.316;6.092;2022-09-13T04:28:21;98848.56;;;17.16;69.08
23953;BME280;12163;49.316;6.092;2022-09-13T04:30:48;98832.22;;;17.16;68.83
23953;BME280;12163;49.316;6.092;2022-09-13T04:33:15;98820.72;;;17.22;67.80
23953;BME280;12163;49.316;6.092;2022-09-13T04:35:44;98806.72;;;17.36;66.61
23953;BME280;12163;49.316;6.092;2022-09-13T04:38:11;98820.31;;;17.48;65.95
23953;BME280;12163;49.316;6.092;2022-09-13T04:40:38;98861.88;;;17.57;65.10
23953;BME280;12163;49.316;6.092;2022-09-13T04:43:04;98920.53;;;17.51;66.95
23953;BME280;12163;49.316;6.092;2022-09-13T04:45:31;98936.72;;;17.32;67.62
23953;BME280;12163;49.316;6.092;2022-09-13T04:47:58;98906.72;;;17.20;67.93
23953;BME280;12163;49.316;6.092;2022-09-13T04:50:25;98894.91;;;17.16;67.99
23953;BME280;12163;49.316;6.092;2022-09-13T04:52:53;98905.81;;;17.16;68.22
23953;BME280;12163;49.316;6.092;2022-09-13T04:55:21;98906.22;;;17.30;68.44
23953;BME280;12163;49.316;6.092;2022-09-13T04:57:51;98904.78;;;17.72;68.32
23953;BME280;12163;49.316;6.092;2022-09-13T05:00:18;98906.16;;;18.21;66.82
23953;BME280;12163;49.316;6.092;2022-09-13T05:02:45;98925.34;;;18.52;65.08
23953;BME280;12163;49.316;6.092;2022-09-13T05:05:11;98921.13;;;18.70;64.47
23953;BME280;12163;49.316;6.092;2022-09-13T05:07:38;98908.47;;;18.96;63.75
23953;BME280;12163;49.316;6.092;2022-09-13T05:10:05;98916.44;;;19.16;63.20
23953;BME280;12163;49.316;6.092;2022-09-13T05:12:32;98913.75;;;19.35;62.61
23953;BME280;12163;49.316;6.092;2022-09-13T05:14:58;98915.69;;;19.54;61.57
23953;BME280;12163;49.316;6.092;2022-09-13T05:17:25;98918.78;;;19.71;61.10
23953;BME280;12163;49.316;6.092;2022-09-13T05:19:51;98915.78;;;19.76;60.49
23953;BME280;12163;49.316;6.092;2022-09-13T05:22:18;98897.91;;;19.82;60.56
23953;BME280;12163;49.316;6.092;2022-09-13T05:24:44;98898.47;;;19.91;60.11
23953;BME280;12163;49.316;6.092;2022-09-13T05:27:11;98900.22;;;19.99;59.92
23953;BME280;12163;49.316;6.092;2022-09-13T05:29:38;98886.25;;;20.04;59.50
23953;BME280;12163;49.316;6.092;2022-09-13T05:32:04;98897.63;;;20.06;59.68
23953;BME280;12163;49.316;6.092;2022-09-13T05:34:31;98905.13;;;20.09;59.48
23953;BME280;12163;49.316;6.092;2022-09-13T05:36:58;98890.69;;;20.12;59.46
23953;BME280;12163;49.316;6.092;2022-09-13T05:39:24;98885.34;;;20.19;59.18
23953;BME280;12163;49.316;6.092;2022-09-13T05:42:09;98882.91;;;20.14;59.19
23953;BME280;12163;49.316;6.092;2022-09-13T05:44:35;98878.91;;;20.08;59.21
23953;BME280;12163;49.316;6.092;2022-09-13T05:47:02;98854.59;;;20.07;59.50
23953;BME280;12163;49.316;6.092;2022-09-13T05:49:28;98847.03;;;20.00;58.61
23953;BME280;12163;49.316;6.092;2022-09-13T05:51:55;98856.31;;;19.96;59.03
23953;BME280;12163;49.316;6.092;2022-09-13T05:54:21;98837.22;;;19.99;59.39
23953;BME280;12163;49.316;6.092;2022-09-13T05:56:48;98842.00;;;20.02;59.00
23953;BME280;12163;49.316;6.092;2022-09-13T05:59:17;98830.75;;;20.07;59.07
23953;BME280;12163;49.316;6.092;2022-09-13T06:01:44;98837.38;;;20.06;58.62
23953;BME280;12163;49.316;6.092;2022-09-13T06:04:10;98848.53;;;19.98;58.33
23953;BME280;12163;49.316;6.092;2022-09-13T06:06:38;98852.78;;;19.95;59.19
23953;BME280;12163;49.316;6.092;2022-09-13T06:09:04;98857.09;;;19.96;58.49
23953;BME280;12163;49.316;6.092;2022-09-13T06:11:33;98865.31;;;19.96;58.56
23953;BME280;12163;49.316;6.092;2022-09-13T06:14:00;98867.81;;;20.01;58.39
23953;BME280;12163;49.316;6.092;2022-09-13T06:16:27;98865.63;;;20.10;58.28
23953;BME280;12163;49.316;6.092;2022-09-13T06:18:53;98861.81;;;20.15;57.91
23953;BME280;12163;49.316;6.092;2022-09-13T06:21:21;98860.75;;;20.23;58.10
23953;BME280;12163;49.316;6.092;2022-09-13T06:23:54;98864.50;;;20.34;57.72
23953;BME280;12163;49.316;6.092;2022-09-13T06:26:23;98854.13;;;20.46;57.51
23953;BME280;12163;49.316;6.092;2022-09-13T06:28:53;98851.50;;;20.53;57.22
23953;BME280;12163;49.316;6.092;2022-09-13T06:31:22;98846.13;;;20.60;57.11
23953;BME280;12163;49.316;6.092;2022-09-13T06:33:58;98831.25;;;20.61;57.02
23953;BME280;12163;49.316;6.092;2022-09-13T06:36:26;98838.75;;;20.64;57.08
23953;BME280;12163;49.316;6.092;2022-09-13T06:38:53;98845.09;;;20.68;56.62
23953;BME280;12163;49.316;6.092;2022-09-13T06:41:21;98845.59;;;20.51;56.79
23953;BME280;12163;49.316;6.092;2022-09-13T06:43:56;98846.41;;;20.29;57.30
23953;BME280;12163;49.316;6.092;2022-09-13T06:46:25;98827.75;;;20.38;57.52
23953;BME280;12163;49.316;6.092;2022-09-13T06:48:54;98832.63;;;20.48;57.61
23953;BME280;12163;49.316;6.092;2022-09-13T06:51:22;98839.22;;;20.44;57.05
23953;BME280;12163;49.316;6.092;2022-09-13T06:53:50;98841.03;;;20.36;57.35
23953;BME280;12163;49.316;6.092;2022-09-13T06:56:22;98837.44;;;20.32;57.71
23953;BME280;12163;49.316;6.092;2022-09-13T06:58:51;98841.88;;;20.40;57.68
23953;BME280;12163;49.316;6.092;2022-09-13T07:01:28;98848.22;;;20.22;57.96
23953;BME280;12163;49.316;6.092;2022-09-13T07:04:06;98861.25;;;19.87;58.77
23953;BME280;12163;49.316;6.092;2022-09-13T07:06:42;98870.13;;;19.61;59.72
23953;BME280;12163;49.316;6.092;2022-09-13T07:09:14;98878.44;;;19.49;60.06
23953;BME280;12163;49.316;6.092;2022-09-13T07:11:43;98865.00;;;19.60;60.53
23953;BME280;12163;49.316;6.092;2022-09-13T07:14:16;98870.66;;;19.89;59.93
23953;BME280;12163;49.316;6.092;2022-09-13T07:16:43;98872.84;;;19.99;59.03
23953;BME280;12163;49.316;6.092;2022-09-13T07:19:20;98874.16;;;20.05;58.92
23953;BME280;12163;49.316;6.092;2022-09-13T07:21:49;98885.34;;;20.19;58.21
23953;BME280;12163;49.316;6.092;2022-09-13T07:24:16;98888.47;;;20.18;58.26
23953;BME280;12163;49.316;6.092;2022-09-13T07:26:43;98887.41;;;20.03;58.57
23953;BME280;12163;49.316;6.092;2022-09-13T07:29:12;98895.63;;;19.84;58.82
23953;BME280;12163;49.316;6.092;2022-09-13T07:31:43;98894.03;;;19.83;59.09
23953;BME280;12163;49.316;6.092;2022-09-13T07:34:18;98899.53;;;20.02;58.40
23953;BME280;12163;49.316;6.092;2022-09-13T07:36:46;98906.16;;;20.01;57.75
23953;BME280;12163;49.316;6.092;2022-09-13T07:39:14;98903.91;;;20.07;57.51
23953;BME280;12163;49.316;6.092;2022-09-13T07:41:47;98909.53;;;20.14;58.10
23953;BME280;12163;49.316;6.092;2022-09-13T07:44:14;98900.16;;;20.37;57.72
23953;BME280;12163;49.316;6.092;2022-09-13T07:46:40;98912.34;;;20.62;57.04
23953;BME280;12163;49.316;6.092;2022-09-13T07:49:13;98906.44;;;20.82;56.58
23953;BME280;12163;49.316;6.092;2022-09-13T07:51:42;98896.19;;;21.02;56.00
23953;BME280;12163;49.316;6.092;2022-09-13T07:54:14;98901.94;;;21.19;55.34
23953;BME280;12163;49.316;6.092;2022-09-13T07:56:42;98905.69;;;21.34;54.55
23953;BME280;12163;49.316;6.092;2022-09-13T07:59:13;98914.03;;;21.41;54.40
23953;BME280;12163;49.316;6.092;2022-09-13T08:01:42;98917.19;;;21.43;53.76
23953;BME280;12163;49.316;6.092;2022-09-13T08:04:11;98919.72;;;21.55;53.94
23953;BME280;12163;49.316;6.092;2022-09-13T08:06:39;98899.44;;;21.63;53.29
23953;BME280;12163;49.316;6.092;2022-09-13T08:09:07;98905.84;;;21.74;53.29
23953;BME280;12163;49.316;6.092;2022-09-13T08:11:37;98905.97;;;21.81;53.08
23953;BME280;12163;49.316;6.092;2022-09-13T08:14:05;98905.25;;;21.87;52.84
23953;BME280;12163;49.316;6.092;2022-09-13T08:16:33;98905.75;;;21.96;51.98
23953;BME280;12163;49.316;6.092;2022-09-13T08:19:02;98909.28;;;21.97;51.75
23953;BME280;12163;49.316;6.092;2022-09-13T08:21:34;98916.19;;;21.84;52.21
23953;BME280;12163;49.316;6.092;2022-09-13T08:24:03;98921.59;;;21.77;52.63
23953;BME280;12163;49.316;6.092;2022-09-13T08:26:31;98926.34;;;21.80;52.67
23953;BME280;12163;49.316;6.092;2022-09-13T08:29:00;98943.59;;;21.80;53.17
23953;BME280;12163;49.316;6.092;2022-09-13T08:31:27;98947.28;;;21.91;52.96
23953;BME280;12163;49.316;6.092;2022-09-13T08:33:55;98952.09;;;21.98;52.26
23953;BME280;12163;49.316;6.092;2022-09-13T08:36:23;98969.81;;;22.04;52.08
23953;BME280;12163;49.316;6.092;2022-09-13T08:38:52;98963.22;;;22.12;52.35
23953;BME280;12163;49.316;6.092;2022-09-13T08:41:30;98954.25;;;22.15;52.92
23953;BME280;12163;49.316;6.092;2022-09-13T08:44:27;98970.06;;;22.25;51.84
23953;BME280;12163;49.316;6.092;2022-09-13T08:49:31;98959.25;;;22.38;52.10
23953;BME280;12163;49.316;6.092;2022-09-13T08:52:11;98949.94;;;22.50;51.74
23953;BME280;12163;49.316;6.092;2022-09-13T08:54:41;98952.75;;;22.53;52.13
23953;BME280;12163;49.316;6.092;2022-09-13T08:57:15;98936.69;;;22.59;52.00
23953;BME280;12163;49.316;6.092;2022-09-13T09:03:06;98924.78;;;22.48;51.98
23953;BME280;12163;49.316;6.092;2022-09-13T09:05:55;98934.50;;;22.38;51.57
23953;BME280;12163;49.316;6.092;2022-09-13T09:11:00;98939.91;;;22.64;50.98
23953;BME280;12163;49.316;6.092;2022-09-13T09:16:01;98949.94;;;22.86;50.14
23953;BME280;12163;49.316;6.092;2022-09-13T09:18:35;98969.19;;;22.90;49.58
23953;BME280;12163;49.316;6.092;2022-09-13T09:21:11;98955.44;;;22.86;50.32
23953;BME280;12163;49.316;6.092;2022-09-13T09:23:53;98953.50;;;22.94;50.22
23953;BME280;12163;49.316;6.092;2022-09-13T09:28:59;98933.03;;;23.38;49.47
23953;BME280;12163;49.316;6.092;2022-09-13T09:31:43;98938.31;;;23.71;48.51
23953;BME280;12163;49.316;6.092;2022-09-13T09:34:45;98927.44;;;23.92;47.90
23953;BME280;12163;49.316;6.092;2022-09-13T09:37:21;98924.38;;;24.11;47.75
23953;BME280;12163;49.316;6.092;2022-09-13T09:39:52;98928.38;;;24.31;46.84
23953;BME280;12163;49.316;6.092;2022-09-13T09:42:23;98925.25;;;24.43;46.65
23953;BME280;12163;49.316;6.092;2022-09-13T09:44:59;98919.69;;;24.36;46.20
23953;BME280;12163;49.316;6.092;2022-09-13T09:47:28;98912.66;;;24.42;46.77
23953;BME280;12163;49.316;6.092;2022-09-13T09:53:02;98904.81;;;24.65;45.99
23953;BME280;12163;49.316;6.092;2022-09-13T09:55:36;98896.16;;;24.70;44.97
23953;BME280;12163;49.316;6.092;2022-09-13T09:58:07;98890.63;;;24.70;45.27
23953;BME280;12163;49.316;6.092;2022-09-13T10:00:36;98898.50;;;24.68;45.29
23953;BME280;12163;49.316;6.092;2022-09-13T10:03:13;98889.06;;;24.69;45.09
23953;BME280;12163;49.316;6.092;2022-09-13T10:05:42;98893.78;;;24.72;45.00
23953;BME280;12163;49.316;6.092;2022-09-13T10:08:27;98883.53;;;24.79;45.22
23953;BME280;12163;49.316;6.092;2022-09-13T10:10:57;98885.50;;;24.89;45.50
23953;BME280;12163;49.316;6.092;2022-09-13T10:13:27;98884.31;;;24.94;45.07
23953;BME280;12163;49.316;6.092;2022-09-13T10:16:05;98884.72;;;24.85;44.68
23953;BME280;12163;49.316;6.092;2022-09-13T10:18:35;98900.88;;;24.73;44.76
23953;BME280;12163;49.316;6.092;2022-09-13T10:23:45;98881.56;;;24.66;45.86
23953;BME280;12163;49.316;6.092;2022-09-13T10:26:23;98885.09;;;24.77;46.04
23953;BME280;12163;49.316;6.092;2022-09-13T10:29:08;98883.53;;;24.86;46.01
23953;BME280;12163;49.316;6.092;2022-09-13T10:31:41;98870.09;;;24.99;45.60
23953;BME280;12163;49.316;6.092;2022-09-13T10:34:13;98862.63;;;25.10;45.71
23953;BME280;12163;49.316;6.092;2022-09-13T10:36:50;98870.09;;;25.20;45.74
23953;BME280;12163;49.316;6.092;2022-09-13T10:39:21;98863.75;;;25.33;45.33
23953;BME280;12163;49.316;6.092;2022-09-13T10:42:03;98852.69;;;25.47;45.38
23953;BME280;12163;49.316;6.092;2022-09-13T10:44:42;98851.81;;;25.68;44.96
23953;BME280;12163;49.316;6.092;2022-09-13T10:47:17;98843.06;;;25.90;44.43
23953;BME280;12163;49.316;6.092;2022-09-13T10:49:50;98846.97;;;25.99;44.46
23953;BME280;12163;49.316;6.092;2022-09-13T11:06:11;98814.88;;;26.67;43.13
23953;BME280;12163;49.316;6.092;2022-09-13T11:08:42;98813.66;;;26.68;41.96
23953;BME280;12163;49.316;6.092;2022-09-13T11:39:35;98781.28;;;27.72;40.59
23953;BME280;12163;49.316;6.092;2022-09-13T11:45:26;98770.00;;;27.86;40.52
23953;BME280;12163;49.316;6.092;2022-09-13T11:50:48;98755.47;;;28.05;40.01
23953;BME280;12163;49.316;6.092;2022-09-13T11:53:42;98754.41;;;28.22;39.58
23953;BME280;12163;49.316;6.092;2022-09-13T11:58:52;98753.59;;;28.71;39.39
23953;BME280;12163;49.316;6.092;2022-09-13T12:01:24;98753.09;;;28.99;38.89
23953;BME280;12163;49.316;6.092;2022-09-13T12:04:00;98747.31;;;29.09;37.91
23953;BME280;12163;49.316;6.092;2022-09-13T12:06:41;98741.47;;;29.04;37.98
23953;BME280;12163;49.316;6.092;2022-09-13T12:09:22;98741.00;;;29.09;38.44
23953;BME280;12163;49.316;6.092;2022-09-13T12:12:09;98741.50;;;29.23;38.13
23953;BME280;12163;49.316;6.092;2022-09-13T12:15:02;98737.75;;;29.30;37.65
23953;BME280;12163;49.316;6.092;2022-09-13T12:17:34;98718.31;;;29.30;37.70
23953;BME280;12163;49.316;6.092;2022-09-13T12:20:04;98710.84;;;29.27;37.44
23953;BME280;12163;49.316;6.092;2022-09-13T12:22:33;98719.75;;;29.38;36.84
23953;BME280;12163;49.316;6.092;2022-09-13T12:25:05;98710.88;;;29.62;36.92
23953;BME280;12163;49.316;6.092;2022-09-13T12:27:44;98710.84;;;29.81;35.47
23953;BME280;12163;49.316;6.092;2022-09-13T12:30:20;98712.06;;;29.96;34.62
23953;BME280;12163;49.316;6.092;2022-09-13T12:32:48;98703.50;;;30.07;33.25
23953;BME280;12163;49.316;6.092;2022-09-13T12:49:03;98672.38;;;30.56;31.63
23953;BME280;12163;49.316;6.092;2022-09-13T12:51:46;98663.94;;;30.76;31.36
23953;BME280;12163;49.316;6.092;2022-09-13T12:59:31;98659.22;;;31.01;30.13
23953;BME280;12163;49.316;6.092;2022-09-13T13:02:18;98660.22;;;31.07;29.60
23953;BME280;12163;49.316;6.092;2022-09-13T13:04:55;98653.78;;;31.10;29.66
23953;BME280;12163;49.316;6.092;2022-09-13T13:07:23;98658.16;;;31.11;29.75
23953;BME280;12163;49.316;6.092;2022-09-13T13:09:52;98656.94;;;31.12;29.47
23953;BME280;12163;49.316;6.092;2022-09-13T13:15:02;98643.38;;;30.98;29.57
23953;BME280;12163;49.316;6.092;2022-09-13T13:17:40;98646.72;;;30.93;29.48
23953;BME280;12163;49.316;6.092;2022-09-13T13:26:09;98632.72;;;30.68;29.75
23953;BME280;12163;49.316;6.092;2022-09-13T13:39:12;98621.47;;;30.27;30.97
23953;BME280;12163;49.316;6.092;2022-09-13T13:57:27;98606.00;;;29.78;33.60
23953;BME280;12163;49.316;6.092;2022-09-13T14:10:55;98598.06;;;29.45;34.42
23953;BME280;12163;49.316;6.092;2022-09-13T14:21:39;98602.44;;;29.27;35.26
23953;BME280;12163;49.316;6.092;2022-09-13T14:24:23;98600.69;;;29.17;35.41
23953;BME280;12163;49.316;6.092;2022-09-13T14:26:52;98596.41;;;29.12;35.71
23953;BME280;12163;49.316;6.092;2022-09-13T14:29:21;98595.44;;;29.03;35.70
23953;BME280;12163;49.316;6.092;2022-09-13T14:31:51;98587.63;;;28.98;35.98
23953;BME280;12163;49.316;6.092;2022-09-13T14:34:36;98587.81;;;28.87;36.43
23953;BME280;12163;49.316;6.092;2022-09-13T14:37:15;98585.91;;;28.84;36.75
23953;BME280;12163;49.316;6.092;2022-09-13T14:40:00;98584.41;;;28.80;36.54
23953;BME280;12163;49.316;6.092;2022-09-13T14:42:38;98585.25;;;28.77;36.36
23953;BME280;12163;49.316;6.092;2022-09-13T14:45:05;98573.44;;;28.73;36.35
23953;BME280;12163;49.316;6.092;2022-09-13T14:47:37;98572.66;;;28.72;36.79
23953;BME280;12163;49.316;6.092;2022-09-13T14:50:14;98579.78;;;28.73;36.32
23953;BME280;12163;49.316;6.092;2022-09-13T14:52:59;98583.69;;;28.76;36.64
23953;BME280;12163;49.316;6.092;2022-09-13T14:55:34;98581.97;;;28.82;36.66
23953;BME280;12163;49.316;6.092;2022-09-13T14:58:12;98578.66;;;28.90;36.53
23953;BME280;12163;49.316;6.092;2022-09-13T15:00:50;98578.06;;;28.99;36.14
23953;BME280;12163;49.316;6.092;2022-09-13T15:03:19;98571.34;;;29.16;35.76
23953;BME280;12163;49.316;6.092;2022-09-13T15:05:58;98563.84;;;29.80;35.05
23953;BME280;12163;49.316;6.092;2022-09-13T15:11:00;98570.97;;;31.36;32.71
23953;BME280;12163;49.316;6.092;2022-09-13T15:13:27;98557.84;;;31.95;31.18
23953;BME280;12163;49.316;6.092;2022-09-13T15:15:54;98561.66;;;32.35;30.26
23953;BME280;12163;49.316;6.092;2022-09-13T15:18:29;98560.78;;;32.81;29.49
23953;BME280;12163;49.316;6.092;2022-09-13T15:21:14;98559.84;;;33.05;28.97
23953;BME280;12163;49.316;6.092;2022-09-13T15:23:48;98553.63;;;33.10;29.19
23953;BME280;12163;49.316;6.092;2022-09-13T15:26:23;98554.47;;;32.89;29.26
23953;BME280;12163;49.316;6.092;2022-09-13T15:31:29;98561.06;;;32.06;30.50
23953;BME280;12163;49.316;6.092;2022-09-13T15:36:46;98554.81;;;31.31;31.53
23953;BME280;12163;49.316;6.092;2022-09-13T15:39:20;98558.78;;;30.92;31.93
23953;BME280;12163;49.316;6.092;2022-09-13T15:42:06;98557.44;;;30.56;32.70
23953;BME280;12163;49.316;6.092;2022-09-13T15:44:33;98556.69;;;30.39;32.89
23953;BME280;12163;49.316;6.092;2022-09-13T15:47:16;98545.81;;;30.16;32.83
23953;BME280;12163;49.316;6.092;2022-09-13T15:49:49;98550.91;;;30.05;33.46
23953;BME280;12163;49.316;6.092;2022-09-13T15:52:18;98547.06;;;29.99;33.86
23953;BME280;12163;49.316;6.092;2022-09-13T15:54:50;98541.22;;;29.94;33.75
23953;BME280;12163;49.316;6.092;2022-09-13T15:57:25;98544.28;;;29.83;34.21
23953;BME280;12163;49.316;6.092;2022-09-13T15:59:53;98538.19;;;29.72;34.39
23953;BME280;12163;49.316;6.092;2022-09-13T16:02:26;98541.25;;;29.62;34.21
23953;BME280;12163;49.316;6.092;2022-09-13T16:04:55;98541.44;;;29.55;34.38
23953;BME280;12163;49.316;6.092;2022-09-13T16:07:23;98545.16;;;29.49;34.75
23953;BME280;12163;49.316;6.092;2022-09-13T16:09:50;98544.81;;;29.47;34.88
23953;BME280;12163;49.316;6.092;2022-09-13T16:12:18;98537.69;;;29.46;34.97
23953;BME280;12163;49.316;6.092;2022-09-13T16:14:47;98531.25;;;29.49;35.27
23953;BME280;12163;49.316;6.092;2022-09-13T16:19:49;98524.28;;;29.41;35.06
23953;BME280;12163;49.316;6.092;2022-09-13T16:22:16;98526.81;;;29.35;35.13
23953;BME280;12163;49.316;6.092;2022-09-13T16:24:42;98527.16;;;29.21;34.98
23953;BME280;12163;49.316;6.092;2022-09-13T16:27:11;98528.69;;;29.06;35.45
23953;BME280;12163;49.316;6.092;2022-09-13T16:29:39;98530.16;;;28.95;35.28
23953;BME280;12163;49.316;6.092;2022-09-13T16:32:06;98526.31;;;28.89;35.68
23953;BME280;12163;49.316;6.092;2022-09-13T16:34:32;98531.63;;;28.80;36.21
23953;BME280;12163;49.316;6.092;2022-09-13T16:37:00;98525.97;;;28.67;36.16
23953;BME280;12163;49.316;6.092;2022-09-13T16:39:27;98521.84;;;28.56;36.01
23953;BME280;12163;49.316;6.092;2022-09-13T16:41:54;98526.00;;;28.48;36.28
23953;BME280;12163;49.316;6.092;2022-09-13T16:44:21;98527.78;;;28.38;36.32
23953;BME280;12163;49.316;6.092;2022-09-13T16:46:47;98519.28;;;28.26;36.44
23953;BME280;12163;49.316;6.092;2022-09-13T16:49:14;98526.59;;;28.16;36.72
23953;BME280;12163;49.316;6.092;2022-09-13T16:51:40;98521.59;;;28.08;37.10